Weather at Goddard Field

Public forecast

Using degrees Fahrenheit for public forecast. Weather courtesy of forecast.io.

Closest aviation weather report (METAR) to Goddard Field

Closest report is Lawrence Municipal Airport, 5.7 nm (10.5 km) S. Retrieved 2020/12/04 06:54 UTC (51 minutes ago):

KLWM 040654Z AUTO 21010KT 10SM SCT110 06/M04 A3007 RMK AO2 SLP182 T00611044

Closest aviation forecast (TAF) to Goddard Field

Closest forecast is Manchester-Boston Regional Airport, 14.9 nm (27.6 km) WNW. Retrieved 2020/12/04 06:22 UTC (1 hour ago):

TAF KMHT 040520Z 0406/0506 20005KT P6SM BKN120 BKN250 FM041600 21006KT P6SM OVC100 FM050400 19003KT 5SM BR OVC025